Time;durP1;ratioP1;P1;durP2;ratioP2;P2;SDS_P1;SDS_P2;PMS_P1;PMS_P2;Temp;Humidity;BMP_temperature;BMP_pressure;BME280_temperature;BME280_humidity;BME280_pressure;Samples;Min_cycle;Max_cycle;Signal;HPM_P1;HPM_P2
2021/07/23 00:00:51;;;;;;;10.88;6.03;;;16.40;71.80;;;;;;5040003;28;20025;-79
2021/07/23 00:03:17;;;;;;;8.63;6.13;;;16.30;72.20;;;;;;5035842;28;20039;-80
2021/07/23 00:05:42;;;;;;;6.65;5.82;;;16.30;72.20;;;;;;5018266;28;20116;-80
2021/07/23 00:08:08;;;;;;;8.82;5.55;;;16.20;72.30;;;;;;5020729;28;20136;-80
2021/07/23 00:10:33;;;;;;;9.35;6.32;;;16.40;73.40;;;;;;5014254;28;20440;-80
2021/07/23 00:12:59;;;;;;;7.40;5.38;;;16.30;73.80;;;;;;5018266;28;20039;-80
2021/07/23 00:15:25;;;;;;;9.60;5.70;;;16.40;73.90;;;;;;5027832;28;20033;-80
2021/07/23 00:17:50;;;;;;;8.88;6.43;;;16.30;73.10;;;;;;5051906;28;20029;-80
2021/07/23 00:20:16;;;;;;;7.05;5.68;;;16.20;72.30;;;;;;5032917;28;20462;-79
2021/07/23 00:22:41;;;;;;;6.47;5.85;;;16.10;73.10;;;;;;5052904;28;20024;-79
2021/07/23 00:25:08;;;;;;;6.78;5.80;;;16.20;73.10;;;;;;5040944;28;20399;-79
2021/07/23 00:27:33;;;;;;;9.48;5.85;;;16.10;72.30;;;;;;5029201;28;20496;-80
2021/07/23 00:29:59;;;;;;;7.13;6.40;;;16.10;73.00;;;;;;5023130;28;20033;-80
2021/07/23 00:32:24;;;;;;;7.80;6.30;;;16.00;72.20;;;;;;5049854;28;20078;-80
2021/07/23 00:34:50;;;;;;;9.23;6.25;;;16.00;72.10;;;;;;5032102;28;20097;-79
2021/07/23 00:37:16;;;;;;;7.20;5.50;;;16.00;72.30;;;;;;5032598;28;20401;-79
2021/07/23 00:39:41;;;;;;;7.55;5.95;;;16.10;72.50;;;;;;5036641;28;20082;-80
2021/07/23 00:42:07;;;;;;;11.00;6.40;;;16.00;71.90;;;;;;5025816;28;20033;-81
2021/07/23 00:44:32;;;;;;;7.22;6.35;;;15.90;72.30;;;;;;5028581;28;20514;-80
2021/07/23 00:46:58;;;;;;;10.38;6.30;;;15.80;73.30;;;;;;5035476;28;20024;-79
2021/07/23 00:49:24;;;;;;;7.07;5.00;;;15.70;73.40;;;;;;5025771;28;20354;-79
2021/07/23 00:51:50;;;;;;;7.65;5.47;;;15.60;73.70;;;;;;5038500;28;20041;-80
2021/07/23 00:54:15;;;;;;;6.75;5.97;;;15.50;74.40;;;;;;5033530;28;20032;-79
2021/07/23 00:56:41;;;;;;;7.05;5.80;;;15.60;75.20;;;;;;5022379;28;20045;-79
2021/07/23 00:59:07;;;;;;;7.85;5.68;;;15.50;73.80;;;;;;5038015;28;20036;-79
2021/07/23 01:01:32;;;;;;;8.32;5.68;;;15.50;76.50;;;;;;5033086;28;20071;-79
2021/07/23 01:03:58;;;;;;;10.23;6.53;;;15.40;75.70;;;;;;5034760;28;20044;-79
2021/07/23 01:06:24;;;;;;;12.07;6.80;;;15.50;73.80;;;;;;5020395;28;22173;-79
2021/07/23 01:08:49;;;;;;;9.65;6.60;;;15.60;72.40;;;;;;5023235;28;20506;-79
2021/07/23 01:11:15;;;;;;;12.32;7.03;;;15.50;73.80;;;;;;5042203;28;20116;-79
2021/07/23 01:13:41;;;;;;;9.57;7.35;;;15.30;74.20;;;;;;5016565;28;20120;-79
2021/07/23 01:16:06;;;;;;;9.05;6.65;;;15.30;74.20;;;;;;5014928;28;20119;-79
2021/07/23 01:18:32;;;;;;;9.00;6.22;;;15.10;74.40;;;;;;5028948;28;20123;-79
2021/07/23 01:20:58;;;;;;;9.48;6.22;;;15.10;75.50;;;;;;5021168;28;20028;-79
2021/07/23 01:23:33;;;;;;;7.32;6.10;;;15.10;74.80;;;;;;5030228;28;20032;-80
2021/07/23 01:25:59;;;;;;;10.18;6.57;;;15.00;75.70;;;;;;5023602;28;20033;-79
2021/07/23 01:28:28;;;;;;;10.30;6.57;;;14.90;75.40;;;;;;5024460;28;20029;-79
2021/07/23 01:30:54;;;;;;;11.70;6.95;;;14.80;76.20;;;;;;5023991;28;20151;-79
2021/07/23 01:33:19;;;;;;;11.90;6.28;;;14.90;75.40;;;;;;5035327;28;20548;-79
2021/07/23 01:35:45;;;;;;;8.68;6.90;;;14.90;75.80;;;;;;5045409;28;20036;-79
2021/07/23 01:38:11;;;;;;;7.28;5.93;;;14.70;77.90;;;;;;5018339;28;20033;-79
2021/07/23 01:40:36;;;;;;;10.85;6.63;;;14.80;76.10;;;;;;5026744;28;20037;-78
2021/07/23 01:43:02;;;;;;;7.70;6.38;;;14.80;80.30;;;;;;5035556;28;20028;-79
2021/07/23 01:45:28;;;;;;;9.68;6.47;;;14.70;77.00;;;;;;5064588;28;20033;-79
2021/07/23 01:47:53;;;;;;;7.55;6.40;;;14.60;77.40;;;;;;5027064;28;20197;-79
2021/07/23 01:50:20;;;;;;;8.32;7.47;;;14.60;80.00;;;;;;5013176;28;20040;-80
2021/07/23 01:52:45;;;;;;;15.98;7.03;;;14.60;79.90;;;;;;5017570;28;20108;-79
2021/07/23 01:55:11;;;;;;;9.60;7.18;;;14.60;79.20;;;;;;5028148;28;20559;-79
2021/07/23 01:57:37;;;;;;;9.88;6.80;;;14.50;79.30;;;;;;5040702;28;20441;-79
2021/07/23 02:00:06;;;;;;;8.30;6.03;;;14.50;80.70;;;;;;5023936;28;20035;-79
2021/07/23 02:02:34;;;;;;;12.90;7.88;;;14.50;80.90;;;;;;5024299;28;20040;-79
2021/07/23 02:05:03;;;;;;;10.85;7.82;;;14.40;79.00;;;;;;5016506;28;20040;-78
2021/07/23 02:07:28;;;;;;;8.65;6.50;;;14.30;80.30;;;;;;5042336;28;20104;-78
2021/07/23 02:09:54;;;;;;;11.25;7.47;;;14.30;81.60;;;;;;5016063;28;20135;-78
2021/07/23 02:12:22;;;;;;;10.90;8.13;;;14.40;81.40;;;;;;5028002;28;20074;-79
2021/07/23 02:14:48;;;;;;;14.82;7.53;;;14.40;81.60;;;;;;5034476;28;20056;-78
2021/07/23 02:17:13;;;;;;;11.00;7.97;;;14.40;82.50;;;;;;5044861;28;20561;-78
2021/07/23 02:19:40;;;;;;;10.35;7.10;;;14.30;85.00;;;;;;5047393;28;20108;-78
2021/07/23 02:22:06;;;;;;;10.60;7.53;;;14.30;81.20;;;;;;5034911;28;20040;-79
2021/07/23 02:24:31;;;;;;;9.48;7.43;;;14.30;82.90;;;;;;5025255;28;20175;-78
2021/07/23 02:26:57;;;;;;;8.05;7.18;;;14.30;82.90;;;;;;5039177;28;20540;-78
2021/07/23 02:29:23;;;;;;;13.30;7.88;;;14.10;84.10;;;;;;5027841;28;20032;-78
2021/07/23 02:31:48;;;;;;;10.23;8.15;;;14.10;82.40;;;;;;5034539;28;20374;-78
2021/07/23 02:34:14;;;;;;;11.57;7.82;;;14.20;86.10;;;;;;5057048;28;20480;-78
2021/07/23 02:36:39;;;;;;;11.20;7.90;;;14.00;84.70;;;;;;5017153;28;20393;-78
2021/07/23 02:39:05;;;;;;;10.43;8.82;;;14.00;85.50;;;;;;5018631;28;20028;-78
2021/07/23 02:41:30;;;;;;;13.75;9.35;;;14.00;86.10;;;;;;5043688;28;20025;-78
2021/07/23 02:43:56;;;;;;;12.63;8.20;;;14.10;88.10;;;;;;5050163;28;20025;-78
2021/07/23 02:46:21;;;;;;;12.48;8.02;;;13.90;84.20;;;;;;5033321;28;20071;-78
2021/07/23 02:48:47;;;;;;;10.05;8.15;;;13.90;88.10;;;;;;5046479;28;20040;-78
2021/07/23 02:51:13;;;;;;;11.30;8.65;;;13.90;90.20;;;;;;5049467;28;20033;-78
2021/07/23 02:53:38;;;;;;;9.57;8.10;;;13.80;85.90;;;;;;5032583;28;20039;-78
2021/07/23 02:56:04;;;;;;;14.02;8.25;;;13.80;85.80;;;;;;5029902;28;20029;-78
2021/07/23 02:58:30;;;;;;;10.98;8.05;;;13.70;90.80;;;;;;5042166;28;20029;-78
2021/07/23 03:00:56;;;;;;;15.77;8.98;;;13.60;91.70;;;;;;5043438;28;20040;-79
2021/07/23 03:03:21;;;;;;;13.35;8.18;;;13.60;91.40;;;;;;5034726;28;20029;-78
2021/07/23 03:05:47;;;;;;;14.02;8.68;;;13.60;91.40;;;;;;5034168;28;20408;-78
2021/07/23 03:08:12;;;;;;;10.98;9.38;;;13.60;92.20;;;;;;5034232;28;20035;-78
2021/07/23 03:10:38;;;;;;;10.63;7.72;;;13.60;91.90;;;;;;5027751;28;20033;-78
2021/07/23 03:13:03;;;;;;;13.18;9.27;;;13.60;91.40;;;;;;5024511;28;20392;-77
2021/07/23 03:15:29;;;;;;;11.55;9.02;;;13.60;91.10;;;;;;5027907;28;20029;-77
2021/07/23 03:17:54;;;;;;;10.82;8.48;;;13.50;92.30;;;;;;5048230;28;20080;-77
2021/07/23 03:20:20;;;;;;;12.30;7.78;;;13.50;92.60;;;;;;5041760;28;20075;-78
2021/07/23 03:22:45;;;;;;;11.38;9.27;;;13.50;91.80;;;;;;5047000;28;20035;-78
2021/07/23 03:25:11;;;;;;;11.75;9.20;;;13.50;92.10;;;;;;5044390;28;20028;-78
2021/07/23 03:27:37;;;;;;;11.00;8.55;;;13.40;93.00;;;;;;5029361;28;20507;-78
2021/07/23 03:30:04;;;;;;;13.68;8.95;;;13.40;92.60;;;;;;5040571;28;20064;-77
2021/07/23 03:32:29;;;;;;;12.15;9.30;;;13.40;93.00;;;;;;5030053;28;20029;-78
2021/07/23 03:34:55;;;;;;;16.90;9.30;;;13.30;92.30;;;;;;5055313;28;20384;-77
2021/07/23 03:37:20;;;;;;;12.63;9.38;;;13.20;93.60;;;;;;5036578;28;20035;-78
2021/07/23 03:39:46;;;;;;;11.93;9.18;;;13.30;93.00;;;;;;5056731;28;20380;-78
2021/07/23 03:42:12;;;;;;;15.57;9.63;;;13.20;93.70;;;;;;5036624;28;20448;-77
2021/07/23 03:44:37;;;;;;;15.13;10.00;;;13.20;94.30;;;;;;5019834;28;20086;-77
2021/07/23 03:47:03;;;;;;;11.90;9.10;;;13.10;94.30;;;;;;5022721;28;20028;-78
2021/07/23 03:49:28;;;;;;;11.57;9.13;;;13.20;94.70;;;;;;5028354;28;20075;-77
2021/07/23 03:51:55;;;;;;;16.70;10.48;;;13.20;94.00;;;;;;5022416;28;20033;-77
2021/07/23 03:54:21;;;;;;;20.90;10.10;;;13.20;94.80;;;;;;5035087;28;20035;-77
2021/07/23 03:56:46;;;;;;;13.93;10.13;;;13.20;94.90;;;;;;5048304;28;20029;-78
2021/07/23 03:59:13;;;;;;;13.75;10.68;;;13.10;94.90;;;;;;5039572;28;20025;-77
2021/07/23 04:01:39;;;;;;;11.77;10.10;;;13.20;94.60;;;;;;5052645;28;20163;-78
2021/07/23 04:04:05;;;;;;;14.50;10.48;;;13.20;94.70;;;;;;5025881;28;20582;-77
2021/07/23 04:06:30;;;;;;;16.02;10.60;;;13.20;94.80;;;;;;5044606;28;20032;-77
2021/07/23 04:08:56;;;;;;;16.13;11.02;;;13.10;94.50;;;;;;5056780;28;20033;-77
2021/07/23 04:11:27;;;;;;;16.40;11.73;;;13.10;95.20;;;;;;5035652;28;20032;-78
2021/07/23 04:13:53;;;;;;;15.10;10.25;;;13.10;95.10;;;;;;5046872;28;20044;-78
2021/07/23 04:16:18;;;;;;;16.13;10.60;;;13.10;95.60;;;;;;5029165;28;20052;-77
2021/07/23 04:18:44;;;;;;;16.13;10.13;;;13.20;92.80;;;;;;5053168;28;20431;-78
2021/07/23 04:21:09;;;;;;;16.38;10.02;;;13.40;92.10;;;;;;5018028;28;20028;-77
2021/07/23 04:23:35;;;;;;;10.30;8.10;;;13.40;92.40;;;;;;5053539;28;20041;-78
2021/07/23 04:26:00;;;;;;;13.13;9.90;;;13.50;90.20;;;;;;5024337;28;20036;-78
2021/07/23 04:28:26;;;;;;;10.48;8.68;;;13.50;90.10;;;;;;5039845;28;20025;-78
2021/07/23 04:30:51;;;;;;;13.48;10.63;;;13.50;90.90;;;;;;5043825;28;20025;-78
2021/07/23 04:33:17;;;;;;;14.68;11.52;;;13.50;92.60;;;;;;5042416;28;20035;-77
2021/07/23 04:35:42;;;;;;;13.88;10.95;;;13.40;93.50;;;;;;5063475;28;20467;-78
2021/07/23 04:38:08;;;;;;;16.42;11.30;;;13.30;95.00;;;;;;5056197;28;20025;-77
2021/07/23 04:40:36;;;;;;;15.05;10.35;;;13.50;92.00;;;;;;5042296;28;20460;-77
2021/07/23 04:43:01;;;;;;;15.23;11.07;;;13.60;94.70;;;;;;5034127;28;20488;-78
2021/07/23 04:45:27;;;;;;;11.90;9.35;;;13.60;93.90;;;;;;5040504;28;20086;-78
2021/07/23 04:47:52;;;;;;;16.48;11.25;;;13.70;92.60;;;;;;5046532;28;20515;-77
2021/07/23 04:50:18;;;;;;;18.13;11.85;;;13.80;92.10;;;;;;5031469;28;20036;-78
2021/07/23 04:52:43;;;;;;;18.23;11.73;;;13.90;93.10;;;;;;5048060;28;20400;-77
2021/07/23 04:55:12;;;;;;;18.98;11.07;;;14.00;92.30;;;;;;5047615;28;20031;-77
2021/07/23 04:57:44;;;;;;;17.05;11.73;;;14.10;93.00;;;;;;5048405;28;20126;-77
2021/07/23 05:00:11;;;;;;;14.93;11.15;;;14.20;92.40;;;;;;5044328;28;20028;-77
2021/07/23 05:02:37;;;;;;;15.25;10.70;;;14.30;92.40;;;;;;5029797;28;20492;-78
2021/07/23 05:05:03;;;;;;;13.98;10.57;;;14.40;92.40;;;;;;5021678;28;20587;-78
2021/07/23 05:07:29;;;;;;;14.23;10.65;;;14.50;91.40;;;;;;5028492;28;20059;-77
2021/07/23 05:09:54;;;;;;;15.20;11.07;;;14.60;92.70;;;;;;5045920;28;20043;-77
2021/07/23 05:12:20;;;;;;;14.40;10.38;;;14.80;92.10;;;;;;5050598;28;20040;-77
2021/07/23 05:14:45;;;;;;;18.13;12.38;;;14.90;92.60;;;;;;5042423;28;20098;-77
2021/07/23 05:17:11;;;;;;;15.63;12.00;;;15.10;92.60;;;;;;5052092;28;20082;-78
2021/07/23 05:19:36;;;;;;;22.50;11.85;;;15.20;92.50;;;;;;5023078;28;20072;-77
2021/07/23 05:22:02;;;;;;;12.63;9.55;;;15.40;92.70;;;;;;5031200;28;20089;-77
2021/07/23 05:24:29;;;;;;;15.30;11.23;;;15.60;91.80;;;;;;5028400;28;20160;-77
2021/07/23 05:26:54;;;;;;;16.50;11.88;;;15.80;92.20;;;;;;5033929;28;20032;-77
2021/07/23 05:29:20;;;;;;;14.73;11.35;;;15.90;92.10;;;;;;5035054;28;20029;-78
2021/07/23 05:31:45;;;;;;;16.55;12.00;;;16.10;92.40;;;;;;5017907;28;20035;-78
2021/07/23 05:34:12;;;;;;;14.40;11.20;;;16.30;91.70;;;;;;5031675;28;20384;-78
2021/07/23 05:36:38;;;;;;;15.77;10.57;;;16.60;92.10;;;;;;5015697;28;20444;-77
2021/07/23 05:39:03;;;;;;;16.00;11.25;;;16.60;91.80;;;;;;5033925;28;20029;-77
2021/07/23 05:41:29;;;;;;;15.55;10.95;;;16.80;91.80;;;;;;5046347;28;20388;-78
2021/07/23 05:43:56;;;;;;;16.13;11.32;;;17.00;92.00;;;;;;5016969;28;20063;-78
2021/07/23 05:46:22;;;;;;;12.68;9.25;;;17.20;92.10;;;;;;5029752;28;20048;-77
2021/07/23 05:48:47;;;;;;;13.85;10.75;;;17.30;91.00;;;;;;5051769;28;20075;-78
2021/07/23 05:51:13;;;;;;;12.38;10.32;;;17.60;91.80;;;;;;5039523;28;20047;-78
2021/07/23 05:53:38;;;;;;;14.82;9.95;;;17.80;91.60;;;;;;5045844;28;20029;-77
2021/07/23 05:56:04;;;;;;;15.40;11.13;;;17.90;91.40;;;;;;5052140;28;20115;-78
2021/07/23 05:58:30;;;;;;;18.98;9.20;;;18.10;91.30;;;;;;5041401;28;20314;-78
2021/07/23 06:00:56;;;;;;;21.42;11.10;;;18.30;90.80;;;;;;5038108;28;20080;-78
2021/07/23 06:03:21;;;;;;;15.35;10.18;;;18.50;90.90;;;;;;5030951;28;20036;-78
2021/07/23 06:05:47;;;;;;;15.85;11.10;;;18.70;90.90;;;;;;5056663;28;20107;-78
2021/07/23 06:08:13;;;;;;;16.38;10.98;;;18.90;90.90;;;;;;5015814;28;20119;-78
2021/07/23 06:10:38;;;;;;;17.55;10.75;;;19.10;90.50;;;;;;5043587;28;20119;-78
2021/07/23 06:13:04;;;;;;;14.38;10.50;;;19.30;90.40;;;;;;5017839;28;20493;-78
2021/07/23 06:15:29;;;;;;;14.07;10.27;;;19.50;90.30;;;;;;5030658;28;20695;-78
2021/07/23 06:17:55;;;;;;;14.02;10.15;;;19.70;90.00;;;;;;5030850;28;20041;-78
2021/07/23 06:20:21;;;;;;;12.77;9.93;;;19.80;89.50;;;;;;5043086;28;20400;-78
2021/07/23 06:22:47;;;;;;;14.60;10.70;;;20.00;89.40;;;;;;5020992;28;20024;-78
2021/07/23 06:25:12;;;;;;;16.52;10.30;;;20.10;88.00;;;;;;5028302;28;20115;-79
2021/07/23 06:27:38;;;;;;;13.07;9.82;;;20.30;87.50;;;;;;5043129;28;20029;-79
2021/07/23 06:30:04;;;;;;;17.42;10.35;;;20.40;87.20;;;;;;5043109;28;20036;-78
2021/07/23 06:32:32;;;;;;;8.60;7.38;;;20.60;86.50;;;;;;5039191;28;20473;-79
2021/07/23 06:34:58;;;;;;;13.45;8.88;;;20.70;84.60;;;;;;5016056;28;20033;-78
2021/07/23 06:37:25;;;;;;;13.18;9.07;;;20.90;85.70;;;;;;5037988;28;20056;-79
2021/07/23 06:39:50;;;;;;;14.88;8.82;;;21.10;84.30;;;;;;5052970;28;20501;-78
2021/07/23 06:42:17;;;;;;;16.20;9.15;;;21.20;84.30;;;;;;5018850;28;20077;-78
2021/07/23 06:44:42;;;;;;;16.23;10.50;;;21.40;83.90;;;;;;5033751;28;20492;-79
2021/07/23 06:47:08;;;;;;;18.48;9.25;;;21.60;82.70;;;;;;5021722;28;20032;-79
2021/07/23 06:49:33;;;;;;;12.95;9.68;;;21.70;82.30;;;;;;5033463;28;20028;-79
2021/07/23 06:52:00;;;;;;;13.45;8.13;;;21.90;82.40;;;;;;5030563;28;20439;-79
2021/07/23 06:54:26;;;;;;;12.73;7.43;;;22.10;82.00;;;;;;5028494;28;20101;-80
2021/07/23 06:56:52;;;;;;;11.70;8.60;;;22.20;81.60;;;;;;5031833;28;20087;-80
2021/07/23 06:59:17;;;;;;;8.85;7.82;;;22.30;81.10;;;;;;5020294;28;20031;-80
2021/07/23 07:01:43;;;;;;;11.57;8.10;;;22.50;81.40;;;;;;5026143;28;20025;-79
2021/07/23 07:04:08;;;;;;;9.05;7.15;;;22.70;79.80;;;;;;5040839;28;20496;-79
2021/07/23 07:06:34;;;;;;;11.05;7.75;;;23.00;79.30;;;;;;5027291;28;20028;-79
2021/07/23 07:08:59;;;;;;;8.38;7.43;;;23.00;78.00;;;;;;5040525;28;20068;-81
2021/07/23 07:11:25;;;;;;;12.73;7.63;;;23.20;77.20;;;;;;5039550;28;20133;-80
2021/07/23 07:13:50;;;;;;;12.10;8.07;;;23.40;77.60;;;;;;5023556;28;20075;-80
2021/07/23 07:16:16;;;;;;;11.32;6.18;;;23.50;76.50;;;;;;5013245;28;20037;-80
2021/07/23 07:18:42;;;;;;;11.90;7.47;;;23.60;76.80;;;;;;5035462;28;20502;-81
2021/07/23 07:21:07;;;;;;;9.65;6.38;;;23.80;76.50;;;;;;5044700;28;20033;-80
2021/07/23 07:23:33;;;;;;;11.10;6.55;;;24.00;75.80;;;;;;5007926;28;20026;-80
2021/07/23 07:25:58;;;;;;;8.80;6.85;;;24.10;74.80;;;;;;5044435;28;20123;-80
2021/07/23 07:28:24;;;;;;;8.02;7.03;;;24.20;74.60;;;;;;5028989;28;20025;-82
2021/07/23 07:30:50;;;;;;;8.18;5.60;;;24.40;73.90;;;;;;5026828;28;20481;-80
2021/07/23 07:33:15;;;;;;;10.82;6.72;;;24.40;74.90;;;;;;5041137;28;20036;-80
2021/07/23 07:35:44;;;;;;;10.10;7.05;;;24.60;73.30;;;;;;5044203;28;20059;-81
2021/07/23 07:38:10;;;;;;;9.00;6.97;;;24.80;72.60;;;;;;5020327;28;20531;-81
2021/07/23 07:40:37;;;;;;;11.23;6.22;;;24.90;72.50;;;;;;5045371;28;20116;-80
2021/07/23 07:43:04;;;;;;;11.65;6.65;;;25.00;71.60;;;;;;5022901;28;20039;-81
2021/07/23 07:45:31;;;;;;;7.82;7.03;;;25.10;71.50;;;;;;5035149;28;20035;-80
2021/07/23 07:47:57;;;;;;;10.23;7.45;;;25.30;70.20;;;;;;5038930;28;20052;-80
2021/07/23 07:50:22;;;;;;;8.40;6.43;;;25.50;69.90;;;;;;5032928;28;20361;-81
2021/07/23 07:52:48;;;;;;;10.20;6.40;;;25.50;69.40;;;;;;5045269;28;20028;-80
2021/07/23 07:55:13;;;;;;;10.32;6.68;;;25.60;68.80;;;;;;5037800;28;20397;-80
2021/07/23 07:57:41;;;;;;;12.30;5.60;;;25.60;68.90;;;;;;5045132;28;20058;-81
2021/07/23 08:00:07;;;;;;;8.85;6.53;;;25.70;69.00;;;;;;5036551;28;20047;-81
2021/07/23 08:02:33;;;;;;;9.60;6.00;;;25.80;68.10;;;;;;5024840;28;20033;-81
2021/07/23 08:04:58;;;;;;;7.90;5.45;;;25.90;66.80;;;;;;5051390;28;20044;-81
2021/07/23 08:07:29;;;;;;;8.63;6.88;;;26.10;65.90;;;;;;5036136;28;20032;-82
2021/07/23 08:10:02;;;;;;;10.15;6.13;;;26.10;66.20;;;;;;5064881;28;20107;-82
2021/07/23 08:12:30;;;;;;;8.98;5.28;;;26.20;65.70;;;;;;5053870;28;20119;-83
2021/07/23 08:14:56;;;;;;;8.15;6.00;;;26.30;66.50;;;;;;5065496;28;20028;-82
2021/07/23 08:17:22;;;;;;;10.90;6.20;;;26.60;66.30;;;;;;5037871;28;20051;-83
2021/07/23 08:19:47;;;;;;;6.65;5.90;;;26.70;65.90;;;;;;5039693;28;20082;-83
2021/07/23 08:22:13;;;;;;;10.77;6.50;;;27.00;64.30;;;;;;5057701;28;20077;-83
2021/07/23 08:24:38;;;;;;;9.90;6.25;;;27.00;63.50;;;;;;5038876;28;20044;-83
2021/07/23 08:27:04;;;;;;;9.90;6.00;;;27.10;62.50;;;;;;5034685;28;20036;-83
2021/07/23 08:29:30;;;;;;;5.20;3.92;;;27.10;63.10;;;;;;5035933;28;20506;-83
2021/07/23 08:32:03;;;;;;;8.25;4.40;;;27.20;62.80;;;;;;5041005;28;20330;-82
2021/07/23 08:34:29;;;;;;;12.07;6.88;;;27.30;62.90;;;;;;5036660;28;20465;-82
2021/07/23 08:36:54;;;;;;;14.57;8.25;;;27.40;62.80;;;;;;5038022;28;20025;-82
2021/07/23 08:39:20;;;;;;;7.40;5.97;;;27.60;61.10;;;;;;5033178;28;20062;-82
2021/07/23 08:41:45;;;;;;;9.95;6.20;;;27.70;60.90;;;;;;5029369;28;20063;-82
2021/07/23 08:44:13;;;;;;;6.97;5.93;;;27.90;61.00;;;;;;5029407;28;20025;-82
2021/07/23 08:46:39;;;;;;;7.65;5.63;;;28.00;60.20;;;;;;5026347;28;20049;-81
2021/07/23 08:49:05;;;;;;;8.63;6.97;;;28.00;59.90;;;;;;5046372;28;20032;-81
2021/07/23 08:51:31;;;;;;;8.40;5.35;;;28.10;59.90;;;;;;5025025;28;20036;-81
2021/07/23 08:53:57;;;;;;;10.63;6.22;;;28.20;59.60;;;;;;5046439;28;20115;-81
2021/07/23 08:56:22;;;;;;;10.85;6.90;;;28.30;59.00;;;;;;5036834;28;20029;-81
2021/07/23 08:58:48;;;;;;;8.00;6.15;;;28.20;59.60;;;;;;5013907;28;20036;-80
2021/07/23 09:01:13;;;;;;;9.32;7.18;;;28.40;59.50;;;;;;5045000;28;20090;-80
2021/07/23 09:03:39;;;;;;;14.70;7.53;;;28.60;59.80;;;;;;5024942;28;20506;-80
2021/07/23 09:06:15;;;;;;;12.57;6.45;;;28.80;58.10;;;;;;5032275;28;20507;-79
2021/07/23 09:08:51;;;;;;;6.72;5.30;;;28.70;58.50;;;;;;5029806;28;20029;-79
2021/07/23 09:11:26;;;;;;;9.35;5.97;;;28.90;58.70;;;;;;5031640;28;20074;-79
2021/07/23 09:13:51;;;;;;;6.70;6.05;;;29.00;58.10;;;;;;5027357;28;20082;-78
2021/07/23 09:16:24;;;;;;;9.35;6.13;;;29.20;57.50;;;;;;5047917;28;20029;-78
2021/07/23 09:19:07;;;;;;;11.70;6.53;;;29.30;56.40;;;;;;5028225;28;20036;-78
2021/07/23 09:21:37;;;;;;;5.25;4.20;;;29.20;57.10;;;;;;5047038;28;20104;-77
2021/07/23 09:24:04;;;;;;;15.13;7.32;;;29.40;57.10;;;;;;5036944;28;20096;-77
2021/07/23 09:26:40;;;;;;;11.30;7.85;;;29.60;56.60;;;;;;5025631;28;20411;-77
2021/07/23 09:29:06;;;;;;;11.75;7.63;;;29.70;55.80;;;;;;5031965;28;20067;-78
2021/07/23 09:31:33;;;;;;;8.45;7.35;;;29.80;55.70;;;;;;5025445;28;20064;-76
2021/07/23 09:33:59;;;;;;;7.38;5.43;;;29.80;55.40;;;;;;5022888;28;20062;-75
2021/07/23 09:36:25;;;;;;;8.05;6.22;;;30.00;54.40;;;;;;5047228;28;20025;-76
2021/07/23 09:38:50;;;;;;;8.93;6.90;;;29.90;55.40;;;;;;5030678;28;20070;-75
2021/07/23 09:41:22;;;;;;;8.85;6.25;;;30.00;55.30;;;;;;5027642;28;20032;-76
2021/07/23 09:44:04;;;;;;;11.68;7.50;;;30.20;54.30;;;;;;5041950;28;20043;-76
2021/07/23 09:46:36;;;;;;;10.55;8.70;;;30.30;53.80;;;;;;5051800;28;20089;-75
2021/07/23 09:49:28;;;;;;;9.48;7.85;;;30.50;52.00;;;;;;5059052;28;20056;-75
2021/07/23 09:52:01;;;;;;;7.60;5.68;;;30.60;52.70;;;;;;5055871;28;20028;-76
2021/07/23 09:54:27;;;;;;;9.35;6.45;;;30.60;52.90;;;;;;5029420;28;20503;-75
2021/07/23 09:56:52;;;;;;;7.22;5.80;;;30.50;53.10;;;;;;5030736;28;20024;-76
2021/07/23 09:59:38;;;;;;;7.53;5.13;;;30.50;52.80;;;;;;5045353;28;20036;-75
2021/07/23 10:02:06;;;;;;;9.70;5.82;;;30.60;53.10;;;;;;5030177;28;20144;-75
2021/07/23 10:04:52;;;;;;;9.20;5.43;;;30.80;52.40;;;;;;5026978;28;20138;-76
2021/07/23 10:07:18;;;;;;;;;;;31.00;52.80;;;;;;5022579;28;20036;-76
2021/07/23 10:09:43;;;;;;;;;;;31.10;53.90;;;;;;5056659;28;19931;-76
2021/07/23 10:12:09;;;;;;;7.53;6.73;;;31.30;52.70;;;;;;5061515;28;19912;-77
2021/07/23 10:14:37;;;;;;;6.90;6.00;;;31.30;52.30;;;;;;5026167;28;20063;-77
2021/07/23 10:17:04;;;;;;;7.70;5.47;;;31.40;52.00;;;;;;5043238;28;20033;-76
2021/07/23 10:19:29;;;;;;;9.85;6.10;;;31.50;52.50;;;;;;5025051;28;20032;-77
2021/07/23 10:21:56;;;;;;;8.10;5.78;;;31.70;51.60;;;;;;5046149;28;20325;-77
2021/07/23 10:24:22;;;;;;;6.85;5.63;;;31.90;51.00;;;;;;5016512;28;20040;-77
2021/07/23 10:26:47;;;;;;;7.85;5.93;;;32.00;51.40;;;;;;5014659;28;20024;-78
2021/07/23 10:29:13;;;;;;;12.40;7.28;;;32.10;50.40;;;;;;5034423;28;20036;-78
2021/07/23 10:31:39;;;;;;;7.80;5.38;;;32.10;51.00;;;;;;5047242;28;20040;-77
2021/07/23 10:34:04;;;;;;;13.45;9.02;;;32.20;49.60;;;;;;5016777;28;20036;-77
2021/07/23 10:36:30;;;;;;;13.50;8.35;;;32.70;48.10;;;;;;5055238;28;20035;-77
2021/07/23 10:39:04;;;;;;;10.02;7.72;;;32.70;48.60;;;;;;5035374;28;20090;-78
2021/07/23 10:41:33;;;;;;;7.57;5.60;;;32.50;48.40;;;;;;5046438;28;20082;-76
2021/07/23 10:43:59;;;;;;;13.93;7.97;;;32.60;49.00;;;;;;5033919;28;20029;-77
2021/07/23 10:46:42;;;;;;;10.68;7.65;;;32.50;48.70;;;;;;5044284;28;20559;-77
2021/07/23 10:49:08;;;;;;;8.60;6.82;;;32.60;48.60;;;;;;5044538;28;20032;-77
2021/07/23 10:51:49;;;;;;;15.40;8.60;;;32.50;48.80;;;;;;5030412;28;20040;-77
2021/07/23 10:54:24;;;;;;;12.10;9.30;;;32.50;48.40;;;;;;5047491;28;20332;-77
2021/07/23 10:56:56;;;;;;;14.98;7.45;;;32.60;49.20;;;;;;5020270;28;20033;-77
2021/07/23 10:59:43;;;;;;;9.00;7.88;;;32.80;47.50;;;;;;5040624;28;20106;-77
2021/07/23 11:02:13;;;;;;;10.40;7.55;;;32.80;48.70;;;;;;5048723;28;20531;-77
2021/07/23 11:04:39;;;;;;;6.78;5.72;;;32.80;47.90;;;;;;5062926;28;20037;-77
2021/07/23 11:07:05;;;;;;;7.95;6.75;;;32.90;48.00;;;;;;5024802;28;20036;-77
2021/07/23 11:09:36;;;;;;;7.90;7.10;;;33.20;49.10;;;;;;5030238;28;20057;-77
2021/07/23 11:12:20;;;;;;;7.05;5.32;;;33.20;48.00;;;;;;5039086;28;20450;-77
2021/07/23 11:14:59;;;;;;;12.50;9.40;;;33.50;48.70;;;;;;5031667;28;20032;-77
2021/07/23 11:17:25;;;;;;;8.50;5.32;;;33.50;47.70;;;;;;5032379;28;20503;-77
2021/07/23 11:20:03;;;;;;;5.63;5.03;;;33.80;47.60;;;;;;5036784;28;20025;-77
2021/07/23 11:22:32;;;;;;;8.57;7.63;;;33.80;47.50;;;;;;5029690;28;20032;-77
2021/07/23 11:25:01;;;;;;;7.10;4.13;;;34.20;45.80;;;;;;5048401;28;20036;-77
2021/07/23 11:27:28;;;;;;;7.68;5.85;;;34.20;47.00;;;;;;5060769;28;20063;-77
2021/07/23 11:29:54;;;;;;;9.57;6.68;;;34.30;47.00;;;;;;5019543;28;20119;-77
2021/07/23 11:32:21;;;;;;;13.82;8.52;;;34.40;46.30;;;;;;5034516;28;20036;-76
2021/07/23 11:34:47;;;;;;;8.25;7.07;;;34.50;45.00;;;;;;5034702;28;20496;-76
2021/07/23 11:37:14;;;;;;;5.88;4.63;;;34.60;44.10;;;;;;5052438;28;20119;-76
2021/07/23 11:39:49;;;;;;;12.30;7.65;;;34.60;45.30;;;;;;5062418;28;20416;-78
2021/07/23 11:42:15;;;;;;;4.80;4.10;;;34.80;44.20;;;;;;5033612;28;20028;-77
2021/07/23 11:44:51;;;;;;;7.57;5.22;;;34.70;45.50;;;;;;5030835;28;20081;-76
2021/07/23 11:47:32;;;;;;;7.45;6.15;;;34.80;45.20;;;;;;5015885;28;20028;-75
2021/07/23 11:49:59;;;;;;;9.23;6.30;;;35.00;45.20;;;;;;5047913;28;20065;-77
2021/07/23 11:52:25;;;;;;;11.93;8.65;;;35.20;44.80;;;;;;5033664;28;20121;-78
2021/07/23 11:54:58;;;;;;;9.85;8.65;;;35.20;43.30;;;;;;5046579;28;20455;-75
2021/07/23 11:57:24;;;;;;;10.18;9.10;;;35.10;42.70;;;;;;5032033;28;20434;-77
2021/07/23 11:59:49;;;;;;;8.00;4.95;;;35.30;41.70;;;;;;5055389;28;20029;-77
2021/07/23 12:02:15;;;;;;;9.30;7.50;;;35.20;42.80;;;;;;5031535;28;20319;-75
2021/07/23 12:04:43;;;;;;;8.30;6.40;;;35.10;43.10;;;;;;5035926;28;20595;-77
2021/07/23 12:07:09;;;;;;;5.70;4.85;;;35.20;43.30;;;;;;5039873;28;20044;-77
2021/07/23 12:09:34;;;;;;;7.53;5.18;;;35.00;43.20;;;;;;5016516;28;20389;-77
2021/07/23 12:12:00;;;;;;;11.40;8.88;;;34.90;43.70;;;;;;5034050;28;20036;-77
2021/07/23 12:14:26;;;;;;;12.82;8.18;;;35.00;42.80;;;;;;5031640;28;20366;-78
2021/07/23 12:16:52;;;;;;;8.40;4.78;;;34.90;42.60;;;;;;5038150;28;20028;-78
2021/07/23 12:19:18;;;;;;;6.57;5.25;;;34.90;43.50;;;;;;5049845;28;20041;-78
2021/07/23 12:21:43;;;;;;;9.77;7.18;;;34.90;43.50;;;;;;5046411;28;20025;-75
2021/07/23 12:24:09;;;;;;;7.88;5.38;;;34.90;42.40;;;;;;5033060;28;20550;-75
2021/07/23 12:26:39;;;;;;;11.43;8.45;;;35.00;42.80;;;;;;5045925;28;20025;-75
2021/07/23 12:29:06;;;;;;;7.88;6.65;;;35.10;41.40;;;;;;5017167;28;20610;-78
2021/07/23 12:31:32;;;;;;;7.03;5.13;;;35.20;42.80;;;;;;5046569;28;20028;-75
2021/07/23 12:34:10;;;;;;;8.77;5.20;;;35.30;43.00;;;;;;5034585;28;20047;-75
2021/07/23 12:36:42;;;;;;;8.02;6.75;;;35.40;42.50;;;;;;5041880;28;20469;-75
2021/07/23 12:39:08;;;;;;;11.90;7.50;;;36.00;42.10;;;;;;5035189;28;20583;-78